Cape Normandy — HOIS — position and weather

sailwx.info

Track history (hours):
 
Tides and Currents Weather Stations Pressure Air Temp Water Temp Dewpoint Dewpoint Depression Visibility Wind Speed Wind Dir Waves Ship Positions

Cape Normandy

Last reported at 2017-Sep-20 02:57 UTC. Time now 2017-Sep-21 05:08 UTC.
Position N 37°57' W 076°10'.

Length 292 m; draft 14.3 m.

Type: Cargo ship. MMSI: 373954000.

Date/timePositionNaut miles runAvg speedWind from/ knotsBaromVisibWave heightAir tempDewpointWater temp
2017-Sep-20 02:57N 37°57' W 076°10'511.5
2017-Sep-20 02:29N 38°02' W 076°13'612.4
2017-Sep-20 01:59N 38°08' W 076°14'3312.2
2017-Sep-19 23:18N 38°40' W 076°25'511.9
2017-Sep-19 22:54N 38°45' W 076°26'512.0
2017-Sep-19 22:30N 38°49' W 076°24'611.5
2017-Sep-19 22:00N 38°55' W 076°24'5 9.5
2017-Sep-19 21:30N 38°60' W 076°23'4 8.1
2017-Sep-19 21:01N 39°04' W 076°23'4 7.4
2017-Sep-19 20:31N 39°07' W 076°24'4 7.8
2017-Sep-19 20:00N 39°11' W 076°26'4 8.5
2017-Sep-19 19:30N 39°13' W 076°31'3 6.9
2017-Sep-19 19:00N 39°15' W 076°34'0 0.5
2017-Sep-19 18:30N 39°15' W 076°34'0 0.0
2017-Sep-19 17:58N 39°15' W 076°34'0 0.0
2017-Sep-19 17:30N 39°15' W 076°34'0 0.0
2017-Sep-19 16:58N 39°15' W 076°34'0 0.0
2017-Sep-19 16:28N 39°15' W 076°34'0 0.0
2017-Sep-19 16:01N 39°15' W 076°34'0 0.0
2017-Sep-19 15:28N 39°15' W 076°34'0 0.0
2017-Sep-19 14:58N 39°15' W 076°34'0 0.0
2017-Sep-19 14:31N 39°15' W 076°34'0 0.0
2017-Sep-19 13:57N 39°15' W 076°34'0 0.0
2017-Sep-19 13:31N 39°15' W 076°34'0 0.0
2017-Sep-19 13:00N 39°15' W 076°34'0 0.0
2017-Sep-19 12:31N 39°15' W 076°34'0 0.0
2017-Sep-19 12:01N 39°15' W 076°34'0 0.0
2017-Sep-19 11:30N 39°15' W 076°34'0 0.0
2017-Sep-19 11:00N 39°15' W 076°34'0 0.0
2017-Sep-19 10:31N 39°15' W 076°34'0 0.0
2017-Sep-19 09:58N 39°15' W 076°34'0 0.0
2017-Sep-19 09:28N 39°15' W 076°34'0 0.0
2017-Sep-19 09:01N 39°15' W 076°34'0 0.0
2017-Sep-19 08:30N 39°15' W 076°34'0 0.0
2017-Sep-19 08:00N 39°15' W 076°34'0 0.0
2017-Sep-19 07:30N 39°15' W 076°34'0 0.0
2017-Sep-19 07:00N 39°15' W 076°34'0 0.0
2017-Sep-19 06:30N 39°15' W 076°34'0 0.0
2017-Sep-19 06:00N 39°15' W 076°34'0 0.0
2017-Sep-19 05:27N 39°15' W 076°34'0 0.0
2017-Sep-19 04:57N 39°15' W 076°34'0 0.0
2017-Sep-19 04:30N 39°15' W 076°34'0 0.0
2017-Sep-19 04:01N 39°15' W 076°34'0 0.0
2017-Sep-19 03:31N 39°15' W 076°34'0 0.0
2017-Sep-19 03:00N 39°15' W 076°34'0 0.0
2017-Sep-19 02:27N 39°15' W 076°34'0 0.0
2017-Sep-19 02:01N 39°15' W 076°34'0 0.0
2017-Sep-19 01:27N 39°15' W 076°34'0 0.0
2017-Sep-19 01:00N 39°15' W 076°34'0 0.0
2017-Sep-19 00:30N 39°15' W 076°34'0 0.0
2017-Sep-18 23:57N 39°15' W 076°34'0 0.0
2017-Sep-18 23:30N 39°15' W 076°34'0 0.0
2017-Sep-18 23:00N 39°15' W 076°34'0 0.0
2017-Sep-18 22:30N 39°15' W 076°34'0 0.0
2017-Sep-18 22:00N 39°15' W 076°34'0 0.0
2017-Sep-18 21:30N 39°15' W 076°34'0 0.0
2017-Sep-18 21:00N 39°15' W 076°34'0 0.0
2017-Sep-18 20:30N 39°15' W 076°34'0 0.0
2017-Sep-18 20:00N 39°15' W 076°34'0 0.0
2017-Sep-18 19:30N 39°15' W 076°34'0 0.0
2017-Sep-18 19:00N 39°15' W 076°34'0 0.0
2017-Sep-18 18:30N 39°15' W 076°34'0 0.0
2017-Sep-18 18:00N 39°15' W 076°34'0 0.0
2017-Sep-18 17:31N 39°15' W 076°34'0 0.0
2017-Sep-18 17:00N 39°15' W 076°34'0 0.0
2017-Sep-18 16:30N 39°15' W 076°34'0 0.0
2017-Sep-18 16:00N 39°15' W 076°34'0 0.0
2017-Sep-18 15:30N 39°15' W 076°34'0 0.0
2017-Sep-18 15:00N 39°15' W 076°34'0 0.0
2017-Sep-18 14:30N 39°15' W 076°34'0 0.0
2017-Sep-18 14:00N 39°15' W 076°34'0 0.0
2017-Sep-18 13:30N 39°15' W 076°34'0 0.0
2017-Sep-18 13:00N 39°15' W 076°34'0 0.0
2017-Sep-18 12:30N 39°15' W 076°34'0 0.0
2017-Sep-18 12:00N 39°15' W 076°34'0 0.0
2017-Sep-18 11:27N 39°15' W 076°34'0 0.0
2017-Sep-18 11:00N 39°15' W 076°34'0 0.0
2017-Sep-18 10:30N 39°15' W 076°34'0 0.0
2017-Sep-18 10:00N 39°15' W 076°34'0 0.0
2017-Sep-18 09:30N 39°15' W 076°34'0 0.0
2017-Sep-18 09:00N 39°15' W 076°34'0 0.0
2017-Sep-18 08:30N 39°15' W 076°34'0 0.0
2017-Sep-18 08:00N 39°15' W 076°34'0 0.0
2017-Sep-18 07:30N 39°15' W 076°34'0 0.0
2017-Sep-18 07:00N 39°15' W 076°34'0 0.0
2017-Sep-18 06:30N 39°15' W 076°34'0 0.0
2017-Sep-18 06:00N 39°15' W 076°34'0 0.0
2017-Sep-18 05:30N 39°15' W 076°34'0 0.0
2017-Sep-18 05:00N 39°15' W 076°34'0 0.0
2017-Sep-18 04:30N 39°15' W 076°34'0 0.0
2017-Sep-18 04:00N 39°15' W 076°34'0 0.0
2017-Sep-18 03:30N 39°15' W 076°34'0 0.0
2017-Sep-18 03:00N 39°15' W 076°34'0 0.0
2017-Sep-18 02:30N 39°15' W 076°34'0 0.0
2017-Sep-18 02:00N 39°15' W 076°34'0 0.0
2017-Sep-18 01:30N 39°15' W 076°34'0 0.0
2017-Sep-18 01:00N 39°15' W 076°34'0 0.0
2017-Sep-18 00:30N 39°15' W 076°34'0 0.0
2017-Sep-18 00:00N 39°15' W 076°34'0 0.0
2017-Sep-17 23:30N 39°15' W 076°34'0 0.0
2017-Sep-17 23:00N 39°15' W 076°34'0 0.0
2017-Sep-17 22:30N 39°15' W 076°34'0 0.0
2017-Sep-17 22:00N 39°15' W 076°34'0 0.0
2017-Sep-17 21:30N 39°15' W 076°34'0 0.0
2017-Sep-17 21:00N 39°15' W 076°34'0 0.0
2017-Sep-17 20:30N 39°15' W 076°34'0 0.0
2017-Sep-17 19:57N 39°15' W 076°34'0 0.0
2017-Sep-17 19:30N 39°15' W 076°34'0 0.0
2017-Sep-17 19:00N 39°15' W 076°34'0 0.0
2017-Sep-17 18:30N 39°15' W 076°34'0 0.0
2017-Sep-17 18:00N 39°15' W 076°34'0 0.0
2017-Sep-17 17:30N 39°15' W 076°34'0 0.2
2017-Sep-17 17:00N 39°15' W 076°34'1 1.1
2017-Sep-17 16:30N 39°15' W 076°34'3 5.3
2017-Sep-17 16:00N 39°13' W 076°31'510.3
2017-Sep-17 15:30N 39°10' W 076°26'611.7
2017-Sep-17 15:00N 39°05' W 076°24'611.8
2017-Sep-17 14:30N 38°59' W 076°23'4 7.2
2017-Sep-17 14:00N 38°55' W 076°24'0 0.1
2017-Sep-17 13:30N 38°55' W 076°24'0 0.0
2017-Sep-17 13:00N 38°55' W 076°24'0 0.1
2017-Sep-17 12:30N 38°55' W 076°24'0 0.1
2017-Sep-17 12:00N 38°55' W 076°24'0 0.2
2017-Sep-17 11:30N 38°55' W 076°24'0 0.1
2017-Sep-17 11:00N 38°55' W 076°24'0 0.2
2017-Sep-17 10:27N 38°55' W 076°24'0 0.1
2017-Sep-17 10:00N 38°55' W 076°24'0 0.0
2017-Sep-17 09:30N 38°55' W 076°24'0 0.0
2017-Sep-17 09:00N 38°55' W 076°24'0 0.0
2017-Sep-17 08:30N 38°55' W 076°24'0 0.0
2017-Sep-17 07:59N 38°55' W 076°24'0 0.0
2017-Sep-17 07:29N 38°55' W 076°24'0 0.0
2017-Sep-17 06:59N 38°55' W 076°24'0 0.0
2017-Sep-17 06:29N 38°55' W 076°24'0 0.0
2017-Sep-17 05:59N 38°55' W 076°24'0 0.0
2017-Sep-17 05:29N 38°55' W 076°24'0 0.1
2017-Sep-17 04:59N 38°55' W 076°24'0 0.4
2017-Sep-17 04:29N 38°55' W 076°24'0 0.3
2017-Sep-17 03:59N 38°55' W 076°24'0 0.1
2017-Sep-17 03:29N 38°55' W 076°24'0 0.0
2017-Sep-17 02:59N 38°55' W 076°24'0 0.0
2017-Sep-17 02:29N 38°55' W 076°24'0 0.1
2017-Sep-17 01:59N 38°55' W 076°24'0 0.0
2017-Sep-17 01:29N 38°55' W 076°24'0 0.0
2017-Sep-17 00:59N 38°55' W 076°24'0 0.0
2017-Sep-17 00:29N 38°55' W 076°24'0 0.0
2017-Sep-16 23:59N 38°55' W 076°24'0 0.0
2017-Sep-16 23:29N 38°55' W 076°24'0 0.1
2017-Sep-16 22:59N 38°55' W 076°24'0 0.4
2017-Sep-16 22:29N 38°55' W 076°24'0 0.3
2017-Sep-16 21:59N 38°55' W 076°24'0 0.1
2017-Sep-16 21:29N 38°55' W 076°24'0 0.0
2017-Sep-16 20:59N 38°55' W 076°24'0 0.0
2017-Sep-16 20:29N 38°55' W 076°24'0 0.0
2017-Sep-16 19:59N 38°55' W 076°24'0 0.0
2017-Sep-16 19:29N 38°55' W 076°24'0 0.0
2017-Sep-16 18:59N 38°55' W 076°24'0 0.1
2017-Sep-16 18:29N 38°55' W 076°24'0 0.1
2017-Sep-16 17:59N 38°55' W 076°24'0 0.4
2017-Sep-16 17:29N 38°55' W 076°24'0 0.3
2017-Sep-16 16:59N 38°55' W 076°24'0 0.1
2017-Sep-16 16:29N 38°55' W 076°24'0 0.0
2017-Sep-16 15:59N 38°55' W 076°24'0 0.0
2017-Sep-16 15:29N 38°55' W 076°24'0 0.0
2017-Sep-16 14:59N 38°55' W 076°24'0 0.0
2017-Sep-16 14:29N 38°55' W 076°24'0 0.0
2017-Sep-16 13:59N 38°55' W 076°24'0 0.0
2017-Sep-16 13:29N 38°55' W 076°24'0 0.0
2017-Sep-16 12:59N 38°55' W 076°24'0 0.0
2017-Sep-16 12:26N 38°55' W 076°24'0 0.0
2017-Sep-16 11:59N 38°55' W 076°24'0 0.0
2017-Sep-16 11:29N 38°55' W 076°24'0 0.1
2017-Sep-16 10:59N 38°55' W 076°24'0 0.2
2017-Sep-16 10:29N 38°55' W 076°24'0 0.4
2017-Sep-16 09:59N 38°55' W 076°24'0 0.2
2017-Sep-16 09:29N 38°55' W 076°24'0 0.1
2017-Sep-16 08:59N 38°55' W 076°24'0 0.0
2017-Sep-16 08:29N 38°55' W 076°24'0 0.0
2017-Sep-16 07:59N 38°55' W 076°24'0 0.1
2017-Sep-16 07:29N 38°55' W 076°24'0 0.0
2017-Sep-16 06:59N 38°55' W 076°24'0 0.0
2017-Sep-16 06:29N 38°55' W 076°24'0 0.0
2017-Sep-16 05:59N 38°55' W 076°24'0 0.0
2017-Sep-16 05:29N 38°55' W 076°24'0 0.0
2017-Sep-16 04:59N 38°55' W 076°24'0 0.0
2017-Sep-16 04:29N 38°55' W 076°24'0 0.2
2017-Sep-16 03:53N 38°55' W 076°24'0 0.4
2017-Sep-16 03:29N 38°55' W 076°24'0 0.2
2017-Sep-16 02:59N 38°55' W 076°24'0 0.1
2017-Sep-16 02:29N 38°55' W 076°24'0 0.0
2017-Sep-16 01:59N 38°55' W 076°24'0 0.0
2017-Sep-16 01:29N 38°55' W 076°24'0 0.0
2017-Sep-16 00:59N 38°55' W 076°24'0 0.0
2017-Sep-16 00:29N 38°55' W 076°24'0 0.0
2017-Sep-15 23:59N 38°55' W 076°24'0 0.0
2017-Sep-15 23:29N 38°55' W 076°24'0 0.0
2017-Sep-15 22:59N 38°55' W 076°24'0 0.0
2017-Sep-15 22:29N 38°55' W 076°24'0 0.2
2017-Sep-15 21:59N 38°55' W 076°24'0 0.5
2017-Sep-15 21:29N 38°55' W 076°24'0 0.2
2017-Sep-15 20:59N 38°55' W 076°24'0 0.0
2017-Sep-15 20:29N 38°55' W 076°24'0 0.0
2017-Sep-15 19:59N 38°55' W 076°24'0 0.0
2017-Sep-15 19:29N 38°55' W 076°24'0 0.0
2017-Sep-15 18:59N 38°55' W 076°24'0 0.0
2017-Sep-15 18:29N 38°55' W 076°24'0 0.0
2017-Sep-15 17:59N 38°55' W 076°24'0 0.0
2017-Sep-15 17:29N 38°55' W 076°24'0 0.2
2017-Sep-15 16:59N 38°55' W 076°24'0 0.3
2017-Sep-15 16:29N 38°55' W 076°24'0 0.2
2017-Sep-15 15:59N 38°55' W 076°24'0 0.0
2017-Sep-15 15:29N 38°55' W 076°24'0 0.0
2017-Sep-15 14:59N 38°55' W 076°24'0 0.0
2017-Sep-15 14:29N 38°55' W 076°24'0 0.0
2017-Sep-15 13:59N 38°55' W 076°24'0 0.0
2017-Sep-15 13:29N 38°55' W 076°24'0 0.0
2017-Sep-15 12:59N 38°55' W 076°24'0 0.0
2017-Sep-15 12:29N 38°55' W 076°24'0 0.0
2017-Sep-15 11:59N 38°55' W 076°24'0 0.1
2017-Sep-15 11:29N 38°55' W 076°24'0 0.0
2017-Sep-15 10:59N 38°55' W 076°24'0 0.0
2017-Sep-15 10:29N 38°55' W 076°24'0 0.0
2017-Sep-15 09:59N 38°55' W 076°24'0 0.2
2017-Sep-15 09:29N 38°55' W 076°24'0 0.3
2017-Sep-15 08:59N 38°55' W 076°24'0 0.2
2017-Sep-15 08:29N 38°55' W 076°24'0 0.1
2017-Sep-15 07:59N 38°55' W 076°24'0 0.0
2017-Sep-15 07:29N 38°55' W 076°24'0 0.0
2017-Sep-15 06:59N 38°55' W 076°24'0 0.0
2017-Sep-15 06:29N 38°55' W 076°24'0 0.0
2017-Sep-15 05:59N 38°55' W 076°24'0 0.0
2017-Sep-15 05:29N 38°55' W 076°24'0 0.0
2017-Sep-15 05:00N 38°55' W 076°24'0 0.0
2017-Sep-15 04:29N 38°55' W 076°24'0 0.0
2017-Sep-15 03:59N 38°55' W 076°24'0 0.0
2017-Sep-15 03:29N 38°55' W 076°24'0 0.2
2017-Sep-15 02:59N 38°55' W 076°24'0 0.5
2017-Sep-15 02:29N 38°55' W 076°24'0 0.1
2017-Sep-15 01:59N 38°55' W 076°24'0 0.0
2017-Sep-15 01:29N 38°55' W 076°24'0 0.0
2017-Sep-15 00:59N 38°55' W 076°24'0 0.0
2017-Sep-15 00:29N 38°55' W 076°24'0 0.1
2017-Sep-14 23:59N 38°55' W 076°24'0 0.0
2017-Sep-14 23:29N 38°55' W 076°24'0 0.0
2017-Sep-14 22:59N 38°55' W 076°24'0 0.0
2017-Sep-14 22:29N 38°55' W 076°24'0 0.0
2017-Sep-14 21:59N 38°55' W 076°24'0 0.1
2017-Sep-14 21:29N 38°55' W 076°24'0 0.2
2017-Sep-14 20:59N 38°55' W 076°24'0 0.2
2017-Sep-14 20:29N 38°55' W 076°24'0 0.2
2017-Sep-14 19:59N 38°55' W 076°24'0 0.2
2017-Sep-14 19:29N 38°55' W 076°24'0 0.1
2017-Sep-14 18:59N 38°55' W 076°24'0 0.1
2017-Sep-14 18:29N 38°55' W 076°24'0 0.1
2017-Sep-14 17:59N 38°55' W 076°24'0 0.0
2017-Sep-14 17:29N 38°55' W 076°24'0 0.0
2017-Sep-14 16:59N 38°55' W 076°24'0 0.0
2017-Sep-14 16:29N 38°55' W 076°24'0 0.0
2017-Sep-14 15:59N 38°55' W 076°24'0 0.0
2017-Sep-14 15:29N 38°55' W 076°24'0 0.0
2017-Sep-14 14:53N 38°55' W 076°24'0 0.2
2017-Sep-14 14:29N 38°55' W 076°24'0 0.3
2017-Sep-14 13:59N 38°55' W 076°24'0 0.1
2017-Sep-14 13:29N 38°55' W 076°24'0 0.0
2017-Sep-14 12:59N 38°55' W 076°24'0 0.0
2017-Sep-14 12:29N 38°55' W 076°24'0 0.1
2017-Sep-14 11:59N 38°55' W 076°24'0 0.0
2017-Sep-14 11:29N 38°55' W 076°24'0 0.0
2017-Sep-14 10:59N 38°55' W 076°24'0 0.0
2017-Sep-14 10:29N 38°55' W 076°24'0 0.1
2017-Sep-14 09:59N 38°55' W 076°24'0 0.3
2017-Sep-14 09:29N 38°55' W 076°24'0 0.4
2017-Sep-14 08:59N 38°55' W 076°24'0 0.1
2017-Sep-14 08:29N 38°55' W 076°24'0 0.0
2017-Sep-14 07:59N 38°55' W 076°24'0 0.0
2017-Sep-14 07:29N 38°55' W 076°24'0 0.0
2017-Sep-14 06:59N 38°55' W 076°24'0 0.0
2017-Sep-14 06:29N 38°55' W 076°24'0 0.1
2017-Sep-14 05:59N 38°55' W 076°24'0 0.0
2017-Sep-14 05:29N 38°55' W 076°24'0 0.0
2017-Sep-14 04:59N 38°55' W 076°24'0 0.0
2017-Sep-14 04:29N 38°55' W 076°24'0 0.0
2017-Sep-14 03:59N 38°55' W 076°24'0 0.0
2017-Sep-14 03:29N 38°55' W 076°24'0 0.0
2017-Sep-14 02:59N 38°55' W 076°24'0 0.0
2017-Sep-14 02:29N 38°55' W 076°24'0 0.0
2017-Sep-14 01:59N 38°55' W 076°24'0 0.1
2017-Sep-14 01:29N 38°55' W 076°24'0 0.4
2017-Sep-14 00:59N 38°55' W 076°24'0 0.2
2017-Sep-14 00:29N 38°55' W 076°24'0 0.1
2017-Sep-14 00:00N 38°55' W 076°24'3 6.4
2017-Sep-13 23:31N 38°52' W 076°24'612.7
2017-Sep-13 23:00N 38°46' W 076°26'713.0
2017-Sep-13 22:30N 38°39' W 076°25'2812.9
2017-Sep-13 20:23N 38°13' W 076°15'513.1
2017-Sep-13 19:59N 38°08' W 076°14'713.3
2017-Sep-13 19:29N 38°01' W 076°13'2412.4
2017-Sep-13 17:31N 37°37' W 076°06'012.9
2017-Sep-13 17:30N 37°37' W 076°06'712.2
2017-Sep-13 16:56N 37°31' W 076°03'512.6
2017-Sep-13 16:30N 37°26' W 076°05'1612.0
2017-Sep-13 15:12N 37°11' W 076°09'212.2
2017-Sep-13 15:00N 37°08' W 076°09'612.4
2017-Sep-13 14:30N 37°03' W 076°05'611.7
2017-Sep-13 14:00N 36°59' W 075°60'510.3
2017-Sep-13 13:31N 36°55' W 075°55'4 7.3
2017-Sep-13 13:01N 36°52' W 075°52'3 6.8
2017-Sep-13 12:30N 36°51' W 075°48'4 5.9
2017-Sep-13 11:53N 36°49' W 075°44'68 9.6
2017-Sep-13 04:50N 36°50' W 074°19'510.2
2017-Sep-13 04:18N 36°50' W 074°12'310.3
2017-Sep-13 04:00N 36°50' W 074°09'510.3
2017-Sep-13 03:29N 36°50' W 074°02'510.2
2017-Sep-13 02:59N 36°50' W 073°55'510.1
2017-Sep-13 02:30N 36°50' W 073°49'510.4
2017-Sep-13 02:00N 36°50' W 073°43'510.5
2017-Sep-13 01:30N 36°50' W 073°36'510.5
2017-Sep-13 01:00N 36°50' W 073°30'510.6
2017-Sep-13 00:30N 36°50' W 073°23'510.4
2017-Sep-13 00:00N 36°50' W 073°17'510.0
2017-Sep-12 23:30N 36°50' W 073°10'5 9.4
2017-Sep-12 23:00N 36°50' W 073°05'4 8.7
2017-Sep-12 22:30N 36°50' W 072°59'4 8.0
2017-Sep-12 22:00N 36°50' W 072°54'4 7.2
2017-Sep-12 21:30N 36°50' W 072°50'4 7.1
2017-Sep-12 21:00N 36°50' W 072°45'4 7.0
2017-Sep-12 20:30N 36°49' W 072°41'5 6.7
2017-Sep-12 19:48N 36°48' W 072°35'  
Track history (hours):
 
Tides and Currents Weather Stations Pressure Air Temp Water Temp Dewpoint Dewpoint Depression Visibility Wind Speed Wind Dir Waves Ship Positions

Cape Normandy

Last reported at 2017-Sep-20 02:57 UTC. Time now 2017-Sep-21 05:08 UTC.
Position N 37°57' W 076°10'.

Length 292 m; draft 14.3 m.

Type: Cargo ship. MMSI: 373954000.

Date/timePositionNaut miles runAvg speedWind from/ knotsBaromVisibWave heightAir tempDewpointWater temp
2017-Sep-20 02:57N 37°57' W 076°10'511.5
2017-Sep-20 02:29N 38°02' W 076°13'612.4
2017-Sep-20 01:59N 38°08' W 076°14'3312.2
2017-Sep-19 23:18N 38°40' W 076°25'511.9
2017-Sep-19 22:54N 38°45' W 076°26'512.0
2017-Sep-19 22:30N 38°49' W 076°24'611.5
2017-Sep-19 22:00N 38°55' W 076°24'5 9.5
2017-Sep-19 21:30N 38°60' W 076°23'4 8.1
2017-Sep-19 21:01N 39°04' W 076°23'4 7.4
2017-Sep-19 20:31N 39°07' W 076°24'4 7.8
2017-Sep-19 20:00N 39°11' W 076°26'4 8.5
2017-Sep-19 19:30N 39°13' W 076°31'3 6.9
2017-Sep-19 19:00N 39°15' W 076°34'0 0.5
2017-Sep-19 18:30N 39°15' W 076°34'0 0.0
2017-Sep-19 17:58N 39°15' W 076°34'0 0.0
2017-Sep-19 17:30N 39°15' W 076°34'0 0.0
2017-Sep-19 16:58N 39°15' W 076°34'0 0.0
2017-Sep-19 16:28N 39°15' W 076°34'0 0.0
2017-Sep-19 16:01N 39°15' W 076°34'0 0.0
2017-Sep-19 15:28N 39°15' W 076°34'0 0.0
2017-Sep-19 14:58N 39°15' W 076°34'0 0.0
2017-Sep-19 14:31N 39°15' W 076°34'0 0.0
2017-Sep-19 13:57N 39°15' W 076°34'0 0.0
2017-Sep-19 13:31N 39°15' W 076°34'0 0.0
2017-Sep-19 13:00N 39°15' W 076°34'0 0.0
2017-Sep-19 12:31N 39°15' W 076°34'0 0.0
2017-Sep-19 12:01N 39°15' W 076°34'0 0.0
2017-Sep-19 11:30N 39°15' W 076°34'0 0.0
2017-Sep-19 11:00N 39°15' W 076°34'0 0.0
2017-Sep-19 10:31N 39°15' W 076°34'0 0.0
2017-Sep-19 09:58N 39°15' W 076°34'0 0.0
2017-Sep-19 09:28N 39°15' W 076°34'0 0.0
2017-Sep-19 09:01N 39°15' W 076°34'0 0.0
2017-Sep-19 08:30N 39°15' W 076°34'0 0.0
2017-Sep-19 08:00N 39°15' W 076°34'0 0.0
2017-Sep-19 07:30N 39°15' W 076°34'0 0.0
2017-Sep-19 07:00N 39°15' W 076°34'0 0.0
2017-Sep-19 06:30N 39°15' W 076°34'0 0.0
2017-Sep-19 06:00N 39°15' W 076°34'0 0.0
2017-Sep-19 05:27N 39°15' W 076°34'0 0.0
2017-Sep-19 04:57N 39°15' W 076°34'0 0.0
2017-Sep-19 04:30N 39°15' W 076°34'0 0.0
2017-Sep-19 04:01N 39°15' W 076°34'0 0.0
2017-Sep-19 03:31N 39°15' W 076°34'0 0.0
2017-Sep-19 03:00N 39°15' W 076°34'0 0.0
2017-Sep-19 02:27N 39°15' W 076°34'0 0.0
2017-Sep-19 02:01N 39°15' W 076°34'0 0.0
2017-Sep-19 01:27N 39°15' W 076°34'0 0.0
2017-Sep-19 01:00N 39°15' W 076°34'0 0.0
2017-Sep-19 00:30N 39°15' W 076°34'0 0.0
2017-Sep-18 23:57N 39°15' W 076°34'0 0.0
2017-Sep-18 23:30N 39°15' W 076°34'0 0.0
2017-Sep-18 23:00N 39°15' W 076°34'0 0.0
2017-Sep-18 22:30N 39°15' W 076°34'0 0.0
2017-Sep-18 22:00N 39°15' W 076°34'0 0.0
2017-Sep-18 21:30N 39°15' W 076°34'0 0.0
2017-Sep-18 21:00N 39°15' W 076°34'0 0.0
2017-Sep-18 20:30N 39°15' W 076°34'0 0.0
2017-Sep-18 20:00N 39°15' W 076°34'0 0.0
2017-Sep-18 19:30N 39°15' W 076°34'0 0.0
2017-Sep-18 19:00N 39°15' W 076°34'0 0.0
2017-Sep-18 18:30N 39°15' W 076°34'0 0.0
2017-Sep-18 18:00N 39°15' W 076°34'0 0.0
2017-Sep-18 17:31N 39°15' W 076°34'0 0.0
2017-Sep-18 17:00N 39°15' W 076°34'0 0.0
2017-Sep-18 16:30N 39°15' W 076°34'0 0.0
2017-Sep-18 16:00N 39°15' W 076°34'0 0.0
2017-Sep-18 15:30N 39°15' W 076°34'0 0.0
2017-Sep-18 15:00N 39°15' W 076°34'0 0.0
2017-Sep-18 14:30N 39°15' W 076°34'0 0.0
2017-Sep-18 14:00N 39°15' W 076°34'0 0.0
2017-Sep-18 13:30N 39°15' W 076°34'0 0.0
2017-Sep-18 13:00N 39°15' W 076°34'0 0.0
2017-Sep-18 12:30N 39°15' W 076°34'0 0.0
2017-Sep-18 12:00N 39°15' W 076°34'0 0.0
2017-Sep-18 11:27N 39°15' W 076°34'0 0.0
2017-Sep-18 11:00N 39°15' W 076°34'0 0.0
2017-Sep-18 10:30N 39°15' W 076°34'0 0.0
2017-Sep-18 10:00N 39°15' W 076°34'0 0.0
2017-Sep-18 09:30N 39°15' W 076°34'0 0.0
2017-Sep-18 09:00N 39°15' W 076°34'0 0.0
2017-Sep-18 08:30N 39°15' W 076°34'0 0.0
2017-Sep-18 08:00N 39°15' W 076°34'0 0.0
2017-Sep-18 07:30N 39°15' W 076°34'0 0.0
2017-Sep-18 07:00N 39°15' W 076°34'0 0.0
2017-Sep-18 06:30N 39°15' W 076°34'0 0.0
2017-Sep-18 06:00N 39°15' W 076°34'0 0.0
2017-Sep-18 05:30N 39°15' W 076°34'0 0.0
2017-Sep-18 05:00N 39°15' W 076°34'0 0.0
2017-Sep-18 04:30N 39°15' W 076°34'0 0.0
2017-Sep-18 04:00N 39°15' W 076°34'0 0.0
2017-Sep-18 03:30N 39°15' W 076°34'0 0.0
2017-Sep-18 03:00N 39°15' W 076°34'0 0.0
2017-Sep-18 02:30N 39°15' W 076°34'0 0.0
2017-Sep-18 02:00N 39°15' W 076°34'0 0.0
2017-Sep-18 01:30N 39°15' W 076°34'0 0.0
2017-Sep-18 01:00N 39°15' W 076°34'0 0.0
2017-Sep-18 00:30N 39°15' W 076°34'0 0.0
2017-Sep-18 00:00N 39°15' W 076°34'0 0.0
2017-Sep-17 23:30N 39°15' W 076°34'0 0.0
2017-Sep-17 23:00N 39°15' W 076°34'0 0.0
2017-Sep-17 22:30N 39°15' W 076°34'0 0.0
2017-Sep-17 22:00N 39°15' W 076°34'0 0.0
2017-Sep-17 21:30N 39°15' W 076°34'0 0.0
2017-Sep-17 21:00N 39°15' W 076°34'0 0.0
2017-Sep-17 20:30N 39°15' W 076°34'0 0.0
2017-Sep-17 19:57N 39°15' W 076°34'0 0.0
2017-Sep-17 19:30N 39°15' W 076°34'0 0.0
2017-Sep-17 19:00N 39°15' W 076°34'0 0.0
2017-Sep-17 18:30N 39°15' W 076°34'0 0.0
2017-Sep-17 18:00N 39°15' W 076°34'0 0.0
2017-Sep-17 17:30N 39°15' W 076°34'0 0.2
2017-Sep-17 17:00N 39°15' W 076°34'1 1.1
2017-Sep-17 16:30N 39°15' W 076°34'3 5.3
2017-Sep-17 16:00N 39°13' W 076°31'510.3
2017-Sep-17 15:30N 39°10' W 076°26'611.7
2017-Sep-17 15:00N 39°05' W 076°24'611.8
2017-Sep-17 14:30N 38°59' W 076°23'4 7.2
2017-Sep-17 14:00N 38°55' W 076°24'0 0.1
2017-Sep-17 13:30N 38°55' W 076°24'0 0.0
2017-Sep-17 13:00N 38°55' W 076°24'0 0.1
2017-Sep-17 12:30N 38°55' W 076°24'0 0.1
2017-Sep-17 12:00N 38°55' W 076°24'0 0.2
2017-Sep-17 11:30N 38°55' W 076°24'0 0.1
2017-Sep-17 11:00N 38°55' W 076°24'0 0.2
2017-Sep-17 10:27N 38°55' W 076°24'0 0.1
2017-Sep-17 10:00N 38°55' W 076°24'0 0.0
2017-Sep-17 09:30N 38°55' W 076°24'0 0.0
2017-Sep-17 09:00N 38°55' W 076°24'0 0.0
2017-Sep-17 08:30N 38°55' W 076°24'0 0.0
2017-Sep-17 07:59N 38°55' W 076°24'0 0.0
2017-Sep-17 07:29N 38°55' W 076°24'0 0.0
2017-Sep-17 06:59N 38°55' W 076°24'0 0.0
2017-Sep-17 06:29N 38°55' W 076°24'0 0.0
2017-Sep-17 05:59N 38°55' W 076°24'0 0.0
2017-Sep-17 05:29N 38°55' W 076°24'0 0.1
2017-Sep-17 04:59N 38°55' W 076°24'0 0.4
2017-Sep-17 04:29N 38°55' W 076°24'0 0.3
2017-Sep-17 03:59N 38°55' W 076°24'0 0.1
2017-Sep-17 03:29N 38°55' W 076°24'0 0.0
2017-Sep-17 02:59N 38°55' W 076°24'0 0.0
2017-Sep-17 02:29N 38°55' W 076°24'0 0.1
2017-Sep-17 01:59N 38°55' W 076°24'0 0.0
2017-Sep-17 01:29N 38°55' W 076°24'0 0.0
2017-Sep-17 00:59N 38°55' W 076°24'0 0.0
2017-Sep-17 00:29N 38°55' W 076°24'0 0.0
2017-Sep-16 23:59N 38°55' W 076°24'0 0.0
2017-Sep-16 23:29N 38°55' W 076°24'0 0.1
2017-Sep-16 22:59N 38°55' W 076°24'0 0.4
2017-Sep-16 22:29N 38°55' W 076°24'0 0.3
2017-Sep-16 21:59N 38°55' W 076°24'0 0.1
2017-Sep-16 21:29N 38°55' W 076°24'0 0.0
2017-Sep-16 20:59N 38°55' W 076°24'0 0.0
2017-Sep-16 20:29N 38°55' W 076°24'0 0.0
2017-Sep-16 19:59N 38°55' W 076°24'0 0.0
2017-Sep-16 19:29N 38°55' W 076°24'0 0.0
2017-Sep-16 18:59N 38°55' W 076°24'0 0.1
2017-Sep-16 18:29N 38°55' W 076°24'0 0.1
2017-Sep-16 17:59N 38°55' W 076°24'0 0.4
2017-Sep-16 17:29N 38°55' W 076°24'0 0.3
2017-Sep-16 16:59N 38°55' W 076°24'0 0.1
2017-Sep-16 16:29N 38°55' W 076°24'0 0.0
2017-Sep-16 15:59N 38°55' W 076°24'0 0.0
2017-Sep-16 15:29N 38°55' W 076°24'0 0.0
2017-Sep-16 14:59N 38°55' W 076°24'0 0.0
2017-Sep-16 14:29N 38°55' W 076°24'0 0.0
2017-Sep-16 13:59N 38°55' W 076°24'0 0.0
2017-Sep-16 13:29N 38°55' W 076°24'0 0.0
2017-Sep-16 12:59N 38°55' W 076°24'0 0.0
2017-Sep-16 12:26N 38°55' W 076°24'0 0.0
2017-Sep-16 11:59N 38°55' W 076°24'0 0.0
2017-Sep-16 11:29N 38°55' W 076°24'0 0.1
2017-Sep-16 10:59N 38°55' W 076°24'0 0.2
2017-Sep-16 10:29N 38°55' W 076°24'0 0.4
2017-Sep-16 09:59N 38°55' W 076°24'0 0.2
2017-Sep-16 09:29N 38°55' W 076°24'0 0.1
2017-Sep-16 08:59N 38°55' W 076°24'0 0.0
2017-Sep-16 08:29N 38°55' W 076°24'0 0.0
2017-Sep-16 07:59N 38°55' W 076°24'0 0.1
2017-Sep-16 07:29N 38°55' W 076°24'0 0.0
2017-Sep-16 06:59N 38°55' W 076°24'0 0.0
2017-Sep-16 06:29N 38°55' W 076°24'0 0.0
2017-Sep-16 05:59N 38°55' W 076°24'0 0.0
2017-Sep-16 05:29N 38°55' W 076°24'0 0.0
2017-Sep-16 04:59N 38°55' W 076°24'0 0.0
2017-Sep-16 04:29N 38°55' W 076°24'0 0.2
2017-Sep-16 03:53N 38°55' W 076°24'0 0.4
2017-Sep-16 03:29N 38°55' W 076°24'0 0.2
2017-Sep-16 02:59N 38°55' W 076°24'0 0.1
2017-Sep-16 02:29N 38°55' W 076°24'0 0.0
2017-Sep-16 01:59N 38°55' W 076°24'0 0.0
2017-Sep-16 01:29N 38°55' W 076°24'0 0.0
2017-Sep-16 00:59N 38°55' W 076°24'0 0.0
2017-Sep-16 00:29N 38°55' W 076°24'0 0.0
2017-Sep-15 23:59N 38°55' W 076°24'0 0.0
2017-Sep-15 23:29N 38°55' W 076°24'0 0.0
2017-Sep-15 22:59N 38°55' W 076°24'0 0.0
2017-Sep-15 22:29N 38°55' W 076°24'0 0.2
2017-Sep-15 21:59N 38°55' W 076°24'0 0.5
2017-Sep-15 21:29N 38°55' W 076°24'0 0.2
2017-Sep-15 20:59N 38°55' W 076°24'0 0.0
2017-Sep-15 20:29N 38°55' W 076°24'0 0.0
2017-Sep-15 19:59N 38°55' W 076°24'0 0.0
2017-Sep-15 19:29N 38°55' W 076°24'0 0.0
2017-Sep-15 18:59N 38°55' W 076°24'0 0.0
2017-Sep-15 18:29N 38°55' W 076°24'0 0.0
2017-Sep-15 17:59N 38°55' W 076°24'0 0.0
2017-Sep-15 17:29N 38°55' W 076°24'0 0.2
2017-Sep-15 16:59N 38°55' W 076°24'0 0.3
2017-Sep-15 16:29N 38°55' W 076°24'0 0.2
2017-Sep-15 15:59N 38°55' W 076°24'0 0.0
2017-Sep-15 15:29N 38°55' W 076°24'0 0.0
2017-Sep-15 14:59N 38°55' W 076°24'0 0.0
2017-Sep-15 14:29N 38°55' W 076°24'0 0.0
2017-Sep-15 13:59N 38°55' W 076°24'0 0.0
2017-Sep-15 13:29N 38°55' W 076°24'0 0.0
2017-Sep-15 12:59N 38°55' W 076°24'0 0.0
2017-Sep-15 12:29N 38°55' W 076°24'0 0.0
2017-Sep-15 11:59N 38°55' W 076°24'0 0.1
2017-Sep-15 11:29N 38°55' W 076°24'0 0.0
2017-Sep-15 10:59N 38°55' W 076°24'0 0.0
2017-Sep-15 10:29N 38°55' W 076°24'0 0.0
2017-Sep-15 09:59N 38°55' W 076°24'0 0.2
2017-Sep-15 09:29N 38°55' W 076°24'0 0.3
2017-Sep-15 08:59N 38°55' W 076°24'0 0.2
2017-Sep-15 08:29N 38°55' W 076°24'0 0.1
2017-Sep-15 07:59N 38°55' W 076°24'0 0.0
2017-Sep-15 07:29N 38°55' W 076°24'0 0.0
2017-Sep-15 06:59N 38°55' W 076°24'0 0.0
2017-Sep-15 06:29N 38°55' W 076°24'0 0.0
2017-Sep-15 05:59N 38°55' W 076°24'0 0.0
2017-Sep-15 05:29N 38°55' W 076°24'0 0.0
2017-Sep-15 05:00N 38°55' W 076°24'0 0.0
2017-Sep-15 04:29N 38°55' W 076°24'0 0.0
2017-Sep-15 03:59N 38°55' W 076°24'0 0.0
2017-Sep-15 03:29N 38°55' W 076°24'0 0.2
2017-Sep-15 02:59N 38°55' W 076°24'0 0.5
2017-Sep-15 02:29N 38°55' W 076°24'0 0.1
2017-Sep-15 01:59N 38°55' W 076°24'0 0.0
2017-Sep-15 01:29N 38°55' W 076°24'0 0.0
2017-Sep-15 00:59N 38°55' W 076°24'0 0.0
2017-Sep-15 00:29N 38°55' W 076°24'0 0.1
2017-Sep-14 23:59N 38°55' W 076°24'0 0.0
2017-Sep-14 23:29N 38°55' W 076°24'0 0.0
2017-Sep-14 22:59N 38°55' W 076°24'0 0.0
2017-Sep-14 22:29N 38°55' W 076°24'0 0.0
2017-Sep-14 21:59N 38°55' W 076°24'0 0.1
2017-Sep-14 21:29N 38°55' W 076°24'0 0.2
2017-Sep-14 20:59N 38°55' W 076°24'0 0.2
2017-Sep-14 20:29N 38°55' W 076°24'0 0.2
2017-Sep-14 19:59N 38°55' W 076°24'0 0.2
2017-Sep-14 19:29N 38°55' W 076°24'0 0.1
2017-Sep-14 18:59N 38°55' W 076°24'0 0.1
2017-Sep-14 18:29N 38°55' W 076°24'0 0.1
2017-Sep-14 17:59N 38°55' W 076°24'0 0.0
2017-Sep-14 17:29N 38°55' W 076°24'0 0.0
2017-Sep-14 16:59N 38°55' W 076°24'0 0.0
2017-Sep-14 16:29N 38°55' W 076°24'0 0.0
2017-Sep-14 15:59N 38°55' W 076°24'0 0.0
2017-Sep-14 15:29N 38°55' W 076°24'0 0.0
2017-Sep-14 14:53N 38°55' W 076°24'0 0.2
2017-Sep-14 14:29N 38°55' W 076°24'0 0.3
2017-Sep-14 13:59N 38°55' W 076°24'0 0.1
2017-Sep-14 13:29N 38°55' W 076°24'0 0.0
2017-Sep-14 12:59N 38°55' W 076°24'0 0.0
2017-Sep-14 12:29N 38°55' W 076°24'0 0.1
2017-Sep-14 11:59N 38°55' W 076°24'0 0.0
2017-Sep-14 11:29N 38°55' W 076°24'0 0.0
2017-Sep-14 10:59N 38°55' W 076°24'0 0.0
2017-Sep-14 10:29N 38°55' W 076°24'0 0.1
2017-Sep-14 09:59N 38°55' W 076°24'0 0.3
2017-Sep-14 09:29N 38°55' W 076°24'0 0.4
2017-Sep-14 08:59N 38°55' W 076°24'0 0.1
2017-Sep-14 08:29N 38°55' W 076°24'0 0.0
2017-Sep-14 07:59N 38°55' W 076°24'0 0.0
2017-Sep-14 07:29N 38°55' W 076°24'0 0.0
2017-Sep-14 06:59N 38°55' W 076°24'0 0.0
2017-Sep-14 06:29N 38°55' W 076°24'0 0.1
2017-Sep-14 05:59N 38°55' W 076°24'0 0.0
2017-Sep-14 05:29N 38°55' W 076°24'0 0.0
2017-Sep-14 04:59N 38°55' W 076°24'0 0.0
2017-Sep-14 04:29N 38°55' W 076°24'0 0.0
2017-Sep-14 03:59N 38°55' W 076°24'0 0.0
2017-Sep-14 03:29N 38°55' W 076°24'0 0.0
2017-Sep-14 02:59N 38°55' W 076°24'0 0.0
2017-Sep-14 02:29N 38°55' W 076°24'0 0.0
2017-Sep-14 01:59N 38°55' W 076°24'0 0.1
2017-Sep-14 01:29N 38°55' W 076°24'0 0.4
2017-Sep-14 00:59N 38°55' W 076°24'0 0.2
2017-Sep-14 00:29N 38°55' W 076°24'0 0.1
2017-Sep-14 00:00N 38°55' W 076°24'3 6.4
2017-Sep-13 23:31N 38°52' W 076°24'612.7
2017-Sep-13 23:00N 38°46' W 076°26'713.0
2017-Sep-13 22:30N 38°39' W 076°25'2812.9
2017-Sep-13 20:23N 38°13' W 076°15'513.1
2017-Sep-13 19:59N 38°08' W 076°14'713.3
2017-Sep-13 19:29N 38°01' W 076°13'2412.4
2017-Sep-13 17:31N 37°37' W 076°06'012.9
2017-Sep-13 17:30N 37°37' W 076°06'712.2
2017-Sep-13 16:56N 37°31' W 076°03'512.6
2017-Sep-13 16:30N 37°26' W 076°05'1612.0
2017-Sep-13 15:12N 37°11' W 076°09'212.2
2017-Sep-13 15:00N 37°08' W 076°09'612.4
2017-Sep-13 14:30N 37°03' W 076°05'611.7
2017-Sep-13 14:00N 36°59' W 075°60'510.3
2017-Sep-13 13:31N 36°55' W 075°55'4 7.3
2017-Sep-13 13:01N 36°52' W 075°52'3 6.8
2017-Sep-13 12:30N 36°51' W 075°48'4 5.9
2017-Sep-13 11:53N 36°49' W 075°44'68 9.6
2017-Sep-13 04:50N 36°50' W 074°19'510.2
2017-Sep-13 04:18N 36°50' W 074°12'310.3
2017-Sep-13 04:00N 36°50' W 074°09'510.3
2017-Sep-13 03:29N 36°50' W 074°02'510.2
2017-Sep-13 02:59N 36°50' W 073°55'510.1
2017-Sep-13 02:30N 36°50' W 073°49'510.4
2017-Sep-13 02:00N 36°50' W 073°43'510.5
2017-Sep-13 01:30N 36°50' W 073°36'510.5
2017-Sep-13 01:00N 36°50' W 073°30'510.6
2017-Sep-13 00:30N 36°50' W 073°23'510.4
2017-Sep-13 00:00N 36°50' W 073°17'510.0
2017-Sep-12 23:30N 36°50' W 073°10'5 9.4
2017-Sep-12 23:00N 36°50' W 073°05'4 8.7
2017-Sep-12 22:30N 36°50' W 072°59'4 8.0
2017-Sep-12 22:00N 36°50' W 072°54'4 7.2
2017-Sep-12 21:30N 36°50' W 072°50'4 7.1
2017-Sep-12 21:00N 36°50' W 072°45'4 7.0
2017-Sep-12 20:30N 36°49' W 072°41'5 6.7
2017-Sep-12 19:48N 36°48' W 072°35'  

Dump ship's entire track history